Time;durP1;ratioP1;P1;durP2;ratioP2;P2;SDS_P1;SDS_P2;PMS_P1;PMS_P2;Temp;Humidity;BMP_temperature;BMP_pressure;BME280_temperature;BME280_humidity;BME280_pressure;Samples;Min_cycle;Max_cycle;Signal;HPM_P1;HPM_P2
2022/05/08 00:02:22;;;;;;;21.67;6.53;;;8.60;99.90;;;;;;5037388;28;20045;-69
2022/05/08 00:04:51;;;;;;;22.65;5.68;;;8.60;99.90;;;;;;5037095;28;20382;-68
2022/05/08 00:07:19;;;;;;;30.25;7.60;;;8.60;99.90;;;;;;5037093;28;20168;-69
2022/05/08 00:09:46;;;;;;;26.25;6.75;;;8.60;99.90;;;;;;5036069;28;20140;-69
2022/05/08 00:12:13;;;;;;;21.73;5.57;;;8.60;99.90;;;;;;5037424;28;20060;-68
2022/05/08 00:14:40;;;;;;;26.50;6.75;;;8.50;99.90;;;;;;5037262;28;20509;-68
2022/05/08 00:17:06;;;;;;;27.52;6.57;;;8.50;99.90;;;;;;5037110;28;20080;-69
2022/05/08 00:19:32;;;;;;;30.58;6.53;;;8.50;99.90;;;;;;5035649;28;20049;-69
2022/05/08 00:21:58;;;;;;;30.75;6.60;;;8.50;99.90;;;;;;5035357;28;20042;-68
2022/05/08 00:24:23;;;;;;;24.33;6.20;;;8.50;99.90;;;;;;5036521;28;20455;-70
2022/05/08 00:26:50;;;;;;;32.42;7.22;;;8.50;99.90;;;;;;5037005;28;20076;-69
2022/05/08 00:29:16;;;;;;;27.27;6.85;;;8.50;99.90;;;;;;5035200;28;20482;-68
2022/05/08 00:31:42;;;;;;;28.42;7.18;;;8.50;99.90;;;;;;5036706;28;20042;-68
2022/05/08 00:34:09;;;;;;;24.05;6.80;;;8.50;99.90;;;;;;5036723;28;20061;-68
2022/05/08 00:36:34;;;;;;;23.63;6.30;;;8.50;99.90;;;;;;5036779;28;20081;-69
2022/05/08 00:39:00;;;;;;;20.77;7.13;;;8.50;99.90;;;;;;5034579;28;20082;-69
2022/05/08 00:41:25;;;;;;;30.25;7.57;;;8.40;99.90;;;;;;5035722;28;20073;-69
2022/05/08 00:43:51;;;;;;;19.35;5.97;;;8.50;99.90;;;;;;5036831;28;20463;-69
2022/05/08 00:46:17;;;;;;;23.20;5.72;;;8.40;99.90;;;;;;5036521;28;20045;-68
2022/05/08 00:48:43;;;;;;;27.17;7.35;;;8.40;99.90;;;;;;5031964;28;20100;-68
2022/05/08 00:51:10;;;;;;;21.73;6.57;;;8.40;99.90;;;;;;5016478;28;20050;-68
2022/05/08 00:53:56;;;;;;;26.63;6.40;;;8.40;99.90;;;;;;5016596;28;20124;-70
2022/05/08 00:56:22;;;;;;;28.35;6.10;;;8.40;99.90;;;;;;5015629;28;20058;-69
2022/05/08 00:58:50;;;;;;;20.52;6.10;;;8.30;99.90;;;;;;5015795;28;20368;-66
2022/05/08 01:01:17;;;;;;;21.95;5.70;;;8.30;99.90;;;;;;5016534;28;20067;-67
2022/05/08 01:03:43;;;;;;;22.17;6.22;;;8.30;99.90;;;;;;5016598;28;20042;-67
2022/05/08 01:06:11;;;;;;;20.50;6.25;;;8.30;99.90;;;;;;5016371;28;20045;-69
2022/05/08 01:08:39;;;;;;;22.02;5.88;;;8.30;99.90;;;;;;5017898;28;20046;-68
2022/05/08 01:11:06;;;;;;;26.42;6.57;;;8.20;99.90;;;;;;5036218;28;20470;-68
2022/05/08 01:13:32;;;;;;;22.23;6.45;;;8.20;99.90;;;;;;5035673;28;20133;-68
2022/05/08 01:15:58;;;;;;;22.95;5.97;;;8.20;99.90;;;;;;5035961;28;20044;-67
2022/05/08 01:18:24;;;;;;;19.08;5.72;;;8.20;99.90;;;;;;5017244;28;20056;-69
2022/05/08 01:20:50;;;;;;;24.67;6.13;;;8.20;99.90;;;;;;5016139;28;20056;-69
2022/05/08 01:23:16;;;;;;;25.98;6.90;;;8.10;99.90;;;;;;5016200;28;20128;-68
2022/05/08 01:25:49;;;;;;;21.63;6.18;;;8.10;99.90;;;;;;5016048;28;20065;-69
2022/05/08 01:28:16;;;;;;;24.73;6.60;;;8.10;99.90;;;;;;5015694;28;20057;-69
2022/05/08 01:30:43;;;;;;;25.33;6.40;;;8.10;99.90;;;;;;5034012;28;20052;-68
2022/05/08 01:33:10;;;;;;;32.22;7.47;;;8.10;99.90;;;;;;5035455;28;20083;-68
2022/05/08 01:35:36;;;;;;;24.02;6.75;;;8.10;99.90;;;;;;5035667;28;20458;-69
2022/05/08 01:38:06;;;;;;;23.98;6.97;;;8.10;99.90;;;;;;5022467;28;20053;-68
2022/05/08 01:40:32;;;;;;;29.15;8.05;;;8.10;99.90;;;;;;5015658;28;20077;-69
2022/05/08 01:42:58;;;;;;;29.42;8.02;;;8.10;99.90;;;;;;5016166;28;20046;-68
2022/05/08 01:45:24;;;;;;;21.60;7.18;;;8.10;99.90;;;;;;5015788;28;20054;-70
2022/05/08 01:50:34;;;;;;;;;;;8.00;99.90;;;;;;4996587;28;20042;-68
2022/05/08 01:53:00;;;;;;;21.75;7.13;;;8.00;99.90;;;;;;4995965;28;19929;-68
2022/05/08 01:55:25;;;;;;;20.00;7.72;;;8.00;99.90;;;;;;5004195;28;20088;-69
2022/05/08 01:57:53;;;;;;;26.48;8.00;;;8.10;99.90;;;;;;5015577;28;20060;-69
2022/05/08 02:00:22;;;;;;;27.98;7.45;;;8.00;99.90;;;;;;5015396;28;20451;-69
2022/05/08 02:02:49;;;;;;;28.30;7.45;;;8.00;99.90;;;;;;5012959;28;20180;-68
2022/05/08 02:05:16;;;;;;;18.98;7.05;;;8.00;99.90;;;;;;5021245;28;20037;-68
2022/05/08 02:07:44;;;;;;;22.15;6.85;;;7.90;99.90;;;;;;5035245;28;20060;-68
2022/05/08 02:10:09;;;;;;;22.55;7.32;;;8.00;99.90;;;;;;5034802;28;20455;-70
2022/05/08 02:12:35;;;;;;;24.35;8.15;;;7.90;99.90;;;;;;5034968;28;20047;-69
2022/05/08 02:15:00;;;;;;;22.95;6.72;;;7.90;99.90;;;;;;5033673;28;20052;-68
2022/05/08 02:17:26;;;;;;;18.48;5.90;;;7.90;99.90;;;;;;5035085;28;20133;-69
2022/05/08 02:19:52;;;;;;;18.50;5.97;;;7.90;99.90;;;;;;5034967;28;20104;-68
2022/05/08 02:22:17;;;;;;;19.95;6.65;;;7.90;99.90;;;;;;5034747;28;20041;-69
2022/05/08 02:24:43;;;;;;;25.63;6.45;;;7.90;99.90;;;;;;5033527;28;20056;-68
2022/05/08 02:27:08;;;;;;;21.85;6.15;;;7.80;99.90;;;;;;5034792;28;20051;-68
2022/05/08 02:29:34;;;;;;;19.67;6.45;;;7.80;99.90;;;;;;5034595;28;20111;-69
2022/05/08 02:32:00;;;;;;;23.08;5.40;;;7.80;99.90;;;;;;5026226;28;20026;-68
2022/05/08 02:34:25;;;;;;;15.38;5.10;;;7.80;99.90;;;;;;5034446;28;20107;-68
2022/05/08 02:36:51;;;;;;;20.38;5.18;;;7.80;99.90;;;;;;5034886;28;20041;-68
2022/05/08 02:39:16;;;;;;;22.35;5.85;;;7.80;99.90;;;;;;5034839;28;20041;-68
2022/05/08 02:41:42;;;;;;;20.27;4.90;;;7.80;99.90;;;;;;5032807;28;20497;-69
2022/05/08 02:44:07;;;;;;;14.35;4.72;;;7.80;99.90;;;;;;5034765;28;20049;-68
2022/05/08 02:46:33;;;;;;;26.65;6.13;;;7.80;99.90;;;;;;5037085;28;20049;-68
2022/05/08 02:48:58;;;;;;;17.77;4.60;;;7.80;99.90;;;;;;5038828;28;20057;-68
2022/05/08 02:51:24;;;;;;;14.80;4.82;;;7.80;99.90;;;;;;5037370;28;20045;-69
2022/05/08 02:53:50;;;;;;;17.60;4.93;;;7.70;99.90;;;;;;5038376;28;20053;-68
2022/05/08 02:59:00;;;;;;;16.40;4.23;;;7.70;99.90;;;;;;5038666;28;20053;-67
2022/05/08 03:01:25;;;;;;;14.00;4.53;;;7.70;99.90;;;;;;5037406;28;20308;-68
2022/05/08 03:03:50;;;;;;;16.75;4.88;;;7.70;99.90;;;;;;5038447;28;20459;-68
2022/05/08 03:06:16;;;;;;;18.15;4.80;;;7.60;99.90;;;;;;5038117;28;20042;-68
2022/05/08 03:08:42;;;;;;;14.05;4.47;;;7.60;99.90;;;;;;5038404;28;20056;-68
2022/05/08 03:11:26;;;;;;;21.55;5.15;;;7.60;99.90;;;;;;5024184;28;20046;-68
2022/05/08 03:13:54;;;;;;;11.35;4.72;;;7.60;99.90;;;;;;5018489;28;20125;-68
2022/05/08 03:16:21;;;;;;;11.13;3.92;;;7.50;99.90;;;;;;5018662;28;20081;-68
2022/05/08 03:18:47;;;;;;;14.73;5.07;;;7.50;99.90;;;;;;5018424;28;20046;-68
2022/05/08 03:21:13;;;;;;;11.13;5.07;;;7.50;99.90;;;;;;5026274;28;20063;-68
2022/05/08 03:23:40;;;;;;;19.58;5.18;;;7.50;99.90;;;;;;5019663;28;20045;-69
2022/05/08 03:26:06;;;;;;;11.65;4.78;;;7.40;99.90;;;;;;5018353;28;20058;-69
2022/05/08 03:28:36;;;;;;;12.27;4.38;;;7.40;99.90;;;;;;5018272;28;20038;-68
2022/05/08 03:31:02;;;;;;;14.80;4.68;;;7.40;99.90;;;;;;5029096;28;20095;-68
2022/05/08 03:33:34;;;;;;;17.20;4.50;;;7.30;99.90;;;;;;5019775;28;20049;-68
2022/05/08 03:36:00;;;;;;;10.60;4.57;;;7.40;99.90;;;;;;5018268;28;20053;-67
2022/05/08 03:38:27;;;;;;;11.25;4.38;;;7.30;99.90;;;;;;5017736;28;20475;-66
2022/05/08 03:40:53;;;;;;;14.77;4.95;;;7.30;99.90;;;;;;5027140;28;20058;-67
2022/05/08 03:43:19;;;;;;;10.85;4.65;;;7.30;99.90;;;;;;5037981;28;20041;-66
2022/05/08 03:45:48;;;;;;;12.40;4.35;;;7.30;99.90;;;;;;5037489;28;20049;-67
2022/05/08 03:48:15;;;;;;;12.98;4.22;;;7.30;99.90;;;;;;5037267;28;20481;-66
2022/05/08 03:50:40;;;;;;;13.68;4.40;;;7.30;99.90;;;;;;5036310;28;20045;-66
2022/05/08 03:53:06;;;;;;;14.07;4.57;;;7.30;99.90;;;;;;5037387;28;20064;-67
2022/05/08 03:55:31;;;;;;;11.55;4.32;;;7.30;99.90;;;;;;5037670;28;20053;-66
2022/05/08 03:57:57;;;;;;;16.20;4.50;;;7.20;99.90;;;;;;5036309;28;20104;-66
2022/05/08 04:00:22;;;;;;;9.45;4.35;;;7.20;99.90;;;;;;5035673;28;20045;-67
2022/05/08 04:02:48;;;;;;;17.00;5.05;;;7.20;99.90;;;;;;5037113;28;20124;-66
2022/05/08 04:05:14;;;;;;;12.93;3.78;;;7.20;99.90;;;;;;5037279;28;20064;-67
2022/05/08 04:07:40;;;;;;;15.95;5.22;;;7.20;99.90;;;;;;5037282;28;20052;-66
2022/05/08 04:10:07;;;;;;;13.25;4.55;;;7.30;99.90;;;;;;5029154;28;20053;-67
2022/05/08 04:12:33;;;;;;;11.02;4.07;;;7.30;99.90;;;;;;5017470;28;20057;-66
2022/05/08 04:14:59;;;;;;;11.18;4.15;;;7.20;99.90;;;;;;5017078;28;20063;-67
2022/05/08 04:17:28;;;;;;;14.98;3.95;;;7.30;99.90;;;;;;5017104;28;20045;-67
2022/05/08 04:19:54;;;;;;;10.82;3.90;;;7.30;99.90;;;;;;5022867;28;20079;-66
2022/05/08 04:25:05;;;;;;;13.73;3.95;;;7.30;99.90;;;;;;5037188;28;20485;-66
2022/05/08 04:27:30;;;;;;;16.00;4.35;;;7.30;99.90;;;;;;5036832;28;20045;-67
2022/05/08 04:29:56;;;;;;;11.05;3.90;;;7.30;99.90;;;;;;5029065;28;20490;-66
2022/05/08 04:32:21;;;;;;;13.68;4.45;;;7.40;99.90;;;;;;5016903;28;20057;-66
2022/05/08 04:34:47;;;;;;;11.63;3.65;;;7.40;99.90;;;;;;5017016;28;20086;-67
2022/05/08 04:37:12;;;;;;;11.75;4.13;;;7.30;99.90;;;;;;5016944;28;20061;-67
2022/05/08 04:39:38;;;;;;;15.23;4.72;;;7.30;99.90;;;;;;5019706;28;20060;-67
2022/05/08 04:42:03;;;;;;;18.40;4.63;;;7.30;99.90;;;;;;5035408;28;20041;-66
2022/05/08 04:44:29;;;;;;;16.08;4.47;;;7.30;99.90;;;;;;5036587;28;20391;-67
2022/05/08 04:46:54;;;;;;;11.52;3.90;;;7.40;99.90;;;;;;5019518;28;20111;-66
2022/05/08 04:49:20;;;;;;;10.80;3.63;;;7.40;99.90;;;;;;5034950;28;20053;-66
2022/05/08 04:51:46;;;;;;;15.82;4.55;;;7.50;99.90;;;;;;5019114;28;20111;-66
2022/05/08 04:54:11;;;;;;;7.95;3.92;;;7.50;99.90;;;;;;5036475;28;20037;-67
2022/05/08 04:56:37;;;;;;;13.90;4.10;;;7.50;99.90;;;;;;5036350;28;20053;-66
2022/05/08 04:59:02;;;;;;;14.93;4.45;;;7.50;99.90;;;;;;5036265;28;20045;-66
2022/05/08 05:01:28;;;;;;;17.33;4.68;;;7.60;99.90;;;;;;5033991;28;20049;-66
2022/05/08 05:03:54;;;;;;;9.77;3.20;;;7.60;99.90;;;;;;5036229;28;20132;-67
2022/05/08 05:06:20;;;;;;;11.55;3.15;;;7.80;99.90;;;;;;5036113;28;20064;-66
2022/05/08 05:08:45;;;;;;;8.43;3.22;;;7.80;99.90;;;;;;5035919;28;20045;-67
2022/05/08 05:11:11;;;;;;;15.30;3.65;;;8.00;99.90;;;;;;5034942;28;20045;-66
2022/05/08 05:13:38;;;;;;;10.25;3.67;;;8.00;99.90;;;;;;5035945;28;20079;-67
2022/05/08 05:16:04;;;;;;;7.20;4.18;;;8.10;99.90;;;;;;5036018;28;20077;-67
2022/05/08 05:18:30;;;;;;;7.05;3.70;;;8.20;99.90;;;;;;5036035;28;20086;-67
2022/05/08 05:20:55;;;;;;;13.32;3.72;;;8.20;99.90;;;;;;5034574;28;20125;-67
2022/05/08 05:23:21;;;;;;;7.78;3.42;;;8.30;99.90;;;;;;5036064;28;20045;-67
2022/05/08 05:25:46;;;;;;;7.32;3.45;;;8.40;99.90;;;;;;5036183;28;20072;-66
2022/05/08 05:28:12;;;;;;;11.20;3.83;;;8.40;99.90;;;;;;5035687;28;20072;-66
2022/05/08 05:30:37;;;;;;;11.27;4.30;;;8.50;99.90;;;;;;5023997;28;20041;-66
2022/05/08 05:33:03;;;;;;;10.93;4.00;;;8.50;99.90;;;;;;5015880;28;20046;-67
2022/05/08 05:35:29;;;;;;;10.07;4.18;;;8.60;99.90;;;;;;5015932;28;20418;-66
2022/05/08 05:37:55;;;;;;;11.50;4.68;;;8.60;99.90;;;;;;5015934;28;20370;-66
2022/05/08 05:40:20;;;;;;;8.05;3.70;;;8.70;99.90;;;;;;5017629;28;20041;-68
2022/05/08 05:42:47;;;;;;;10.60;4.00;;;8.80;99.90;;;;;;5015554;28;20383;-68
2022/05/08 05:45:12;;;;;;;15.77;3.92;;;8.80;99.90;;;;;;5015776;28;20065;-69
2022/05/08 05:47:52;;;;;;;11.00;3.53;;;8.90;99.90;;;;;;5015940;28;20050;-68
2022/05/08 05:50:18;;;;;;;14.70;4.25;;;8.90;99.90;;;;;;5015366;28;20060;-68
2022/05/08 05:52:44;;;;;;;9.80;4.15;;;8.90;99.90;;;;;;5015790;28;20042;-68
2022/05/08 05:55:10;;;;;;;13.88;3.70;;;9.00;99.90;;;;;;5030399;28;20060;-69
2022/05/08 05:57:36;;;;;;;8.32;4.10;;;9.10;99.90;;;;;;5035374;28;20206;-69
2022/05/08 06:00:06;;;;;;;20.15;4.22;;;9.10;99.90;;;;;;5035215;28;20049;-70
2022/05/08 06:02:32;;;;;;;10.05;3.58;;;9.20;99.90;;;;;;5026437;28;20462;-69
2022/05/08 06:04:58;;;;;;;11.65;3.90;;;9.20;99.90;;;;;;5035223;28;20052;-69
2022/05/08 06:07:23;;;;;;;10.27;3.33;;;9.30;99.90;;;;;;5035098;28;20046;-69
2022/05/08 06:09:49;;;;;;;9.18;2.80;;;9.50;99.90;;;;;;5035085;28;20201;-69
2022/05/08 06:12:14;;;;;;;11.98;3.42;;;9.60;99.90;;;;;;5033736;28;20033;-69
2022/05/08 06:14:40;;;;;;;14.43;3.78;;;9.70;99.90;;;;;;5035032;28;20048;-68
2022/05/08 06:17:06;;;;;;;11.10;3.00;;;9.90;99.90;;;;;;5034949;28;20048;-68
2022/05/08 06:19:32;;;;;;;16.20;3.03;;;10.00;99.90;;;;;;5034799;28;20477;-69
2022/05/08 06:21:58;;;;;;;11.43;3.05;;;10.10;99.90;;;;;;5032787;28;20073;-68
2022/05/08 06:24:23;;;;;;;12.57;3.22;;;10.10;99.90;;;;;;5034653;28;20152;-69
2022/05/08 06:26:49;;;;;;;13.90;3.38;;;10.20;99.90;;;;;;5034986;28;20076;-67
2022/05/08 06:29:15;;;;;;;9.27;2.83;;;10.20;99.90;;;;;;5034813;28;20041;-67
2022/05/08 06:31:41;;;;;;;9.88;2.95;;;10.30;99.90;;;;;;5015665;28;20052;-68
2022/05/08 06:34:08;;;;;;;13.88;4.07;;;10.40;99.90;;;;;;5015127;28;20132;-68
2022/05/08 06:36:33;;;;;;;12.15;3.30;;;10.40;99.90;;;;;;5014847;28;20359;-68
2022/05/08 06:38:59;;;;;;;11.07;2.70;;;10.40;99.90;;;;;;4997532;28;20045;-68
2022/05/08 06:41:26;;;;;;;7.60;2.63;;;10.40;99.90;;;;;;5029159;28;20057;-69
2022/05/08 06:43:53;;;;;;;12.43;3.08;;;10.40;99.90;;;;;;5034363;28;20530;-69
2022/05/08 06:46:19;;;;;;;8.13;2.88;;;10.40;99.90;;;;;;5034792;28;20049;-69
2022/05/08 06:48:45;;;;;;;9.27;3.17;;;10.30;99.90;;;;;;5034773;28;20057;-71
2022/05/08 06:51:11;;;;;;;8.05;2.92;;;10.30;99.90;;;;;;5033250;28;20072;-70
2022/05/08 06:53:37;;;;;;;14.35;3.50;;;10.30;99.90;;;;;;5034472;28;20045;-69
2022/05/08 06:56:03;;;;;;;10.02;2.78;;;10.20;99.90;;;;;;5034518;28;20064;-69
2022/05/08 06:58:28;;;;;;;9.95;2.65;;;10.20;99.90;;;;;;5034754;28;20033;-69
2022/05/08 07:03:39;;;;;;;10.30;3.00;;;10.20;99.90;;;;;;4997092;28;20380;-71
2022/05/08 07:06:05;;;;;;;14.60;3.08;;;10.40;99.90;;;;;;4997519;28;20054;-69
2022/05/08 07:08:33;;;;;;;6.45;2.35;;;10.60;99.90;;;;;;5014418;28;20049;-67
2022/05/08 07:11:00;;;;;;;13.88;3.60;;;10.70;99.90;;;;;;5014722;28;20052;-67
2022/05/08 07:13:26;;;;;;;9.05;2.83;;;10.90;99.90;;;;;;5022313;28;20092;-67
2022/05/08 07:15:53;;;;;;;10.07;2.80;;;11.10;99.90;;;;;;5033338;28;20106;-70
2022/05/08 07:18:19;;;;;;;9.25;2.63;;;10.90;99.90;;;;;;5033537;28;20088;-68
2022/05/08 07:20:45;;;;;;;15.52;3.33;;;10.80;99.90;;;;;;5034348;28;20049;-69
2022/05/08 07:23:11;;;;;;;10.13;3.05;;;10.70;99.90;;;;;;5032913;28;20367;-68
2022/05/08 07:25:38;;;;;;;7.32;2.70;;;10.70;99.90;;;;;;5034582;28;20375;-68
2022/05/08 07:28:05;;;;;;;11.68;3.03;;;10.70;99.90;;;;;;5034594;28;20413;-70
2022/05/08 07:30:30;;;;;;;13.45;3.08;;;10.70;99.90;;;;;;5033940;28;20443;-69
2022/05/08 07:33:00;;;;;;;8.27;2.88;;;10.60;99.90;;;;;;5035789;28;20045;-72
2022/05/08 07:38:10;;;;;;;10.68;3.03;;;10.70;99.90;;;;;;5037949;28;20085;-71
2022/05/08 07:40:35;;;;;;;11.25;2.72;;;10.80;99.90;;;;;;5037905;28;20085;-70
2022/05/08 07:43:01;;;;;;;8.00;2.90;;;11.00;99.90;;;;;;5036022;28;20034;-67
2022/05/08 07:45:28;;;;;;;14.48;2.67;;;11.20;99.90;;;;;;5020616;28;20041;-68
2022/05/08 07:47:55;;;;;;;7.43;2.63;;;11.50;99.90;;;;;;5037613;28;20049;-67
2022/05/08 07:50:21;;;;;;;13.02;2.50;;;11.50;99.90;;;;;;5037676;28;20129;-68
2022/05/08 07:52:46;;;;;;;9.15;2.30;;;11.50;99.90;;;;;;5036308;28;20420;-69
2022/05/08 07:55:12;;;;;;;7.95;2.25;;;11.60;99.90;;;;;;5037538;28;20046;-68
2022/05/08 07:57:37;;;;;;;12.50;4.03;;;11.80;99.90;;;;;;5037689;28;20037;-70
2022/05/08 08:00:05;;;;;;;15.13;4.65;;;11.90;99.90;;;;;;5037465;28;20348;-67
2022/05/08 08:02:30;;;;;;;12.73;3.72;;;12.10;99.90;;;;;;5036556;28;20041;-67
2022/05/08 08:04:56;;;;;;;12.15;2.90;;;12.20;99.90;;;;;;5017462;28;20056;-66
2022/05/08 08:07:21;;;;;;;9.82;2.72;;;12.40;99.90;;;;;;5017481;28;20124;-69
2022/05/08 08:09:46;;;;;;;13.07;3.17;;;12.50;99.90;;;;;;5017706;28;20096;-68
2022/05/08 08:12:12;;;;;;;15.40;3.45;;;12.60;99.90;;;;;;5017659;28;20124;-71
2022/05/08 08:14:38;;;;;;;14.52;3.50;;;12.80;99.90;;;;;;5033542;28;20451;-67
2022/05/08 08:17:04;;;;;;;9.43;2.65;;;13.10;99.90;;;;;;5037103;28;20053;-67
2022/05/08 08:19:30;;;;;;;12.70;2.90;;;13.30;99.90;;;;;;5020292;28;20050;-70
2022/05/08 08:21:56;;;;;;;14.15;3.35;;;13.40;99.90;;;;;;4998498;28;20050;-70
2022/05/08 08:24:21;;;;;;;12.82;2.75;;;13.30;99.90;;;;;;5016814;28;20087;-71
2022/05/08 08:26:47;;;;;;;13.80;3.00;;;12.90;99.90;;;;;;5016931;28;20045;-68
2022/05/08 08:29:14;;;;;;;11.25;3.15;;;12.70;99.90;;;;;;5017222;28;20128;-69
2022/05/08 08:31:39;;;;;;;12.60;3.63;;;12.80;99.90;;;;;;5016837;28;20099;-68
2022/05/08 08:34:05;;;;;;;9.05;3.22;;;12.70;99.90;;;;;;5027317;28;20442;-69
2022/05/08 08:36:31;;;;;;;12.45;2.63;;;12.90;99.90;;;;;;5036781;28;20121;-68
2022/05/08 08:38:56;;;;;;;12.02;3.30;;;13.00;99.90;;;;;;5027315;28;20037;-71
2022/05/08 08:41:27;;;;;;;7.43;2.95;;;13.10;99.90;;;;;;4999325;28;20050;-70
2022/05/08 08:49:25;;;;;;;8.65;2.60;;;13.40;99.90;;;;;;5036420;28;20459;-71
2022/05/08 08:51:52;;;;;;;7.95;2.67;;;13.40;99.90;;;;;;5036669;28;20053;-70
2022/05/08 08:54:21;;;;;;;13.75;2.60;;;13.50;99.90;;;;;;5034960;28;20526;-70
2022/05/08 08:56:50;;;;;;;10.82;2.92;;;13.50;99.90;;;;;;5036151;28;20486;-71
2022/05/08 08:59:16;;;;;;;7.68;3.10;;;13.50;99.90;;;;;;5030266;28;20060;-71
2022/05/08 09:01:43;;;;;;;8.55;2.78;;;13.50;99.90;;;;;;5036337;28;20362;-71
2022/05/08 09:04:10;;;;;;;10.13;3.05;;;13.50;99.90;;;;;;5018406;28;20073;-71
2022/05/08 09:06:42;;;;;;;9.88;2.67;;;13.70;99.90;;;;;;5015037;28;20455;-70
2022/05/08 09:09:21;;;;;;;9.48;2.65;;;13.70;99.90;;;;;;4995258;28;20065;-70
2022/05/08 09:11:47;;;;;;;9.30;3.25;;;13.60;99.90;;;;;;4998640;28;20054;-72
2022/05/08 09:14:35;;;;;;;7.05;2.70;;;13.50;99.90;;;;;;5005053;28;20515;-70
2022/05/08 09:17:02;;;;;;;9.73;2.75;;;13.50;99.90;;;;;;5015676;28;20479;-70
2022/05/08 09:19:37;;;;;;;14.10;3.22;;;13.30;99.90;;;;;;5016001;28;20483;-71
2022/05/08 09:22:12;;;;;;;11.45;2.95;;;13.40;99.90;;;;;;5015858;28;20042;-70
2022/05/08 09:24:54;;;;;;;10.10;3.60;;;13.40;99.90;;;;;;5014523;28;21200;-71
2022/05/08 09:27:20;;;;;;;11.43;3.20;;;13.50;99.90;;;;;;4979137;28;20042;-72
2022/05/08 09:29:46;;;;;;;14.20;3.38;;;13.30;99.90;;;;;;4979154;28;20043;-70
2022/05/08 09:32:38;;;;;;;10.32;3.28;;;13.50;99.90;;;;;;4966327;28;20069;-69
2022/05/08 09:35:05;;;;;;;10.75;3.60;;;13.50;99.90;;;;;;4998653;28;20096;-71
2022/05/08 09:37:30;;;;;;;11.95;3.33;;;13.50;99.90;;;;;;5015881;28;20049;-69
2022/05/08 09:40:19;;;;;;;12.25;3.05;;;13.50;99.90;;;;;;4998854;28;20145;-73
2022/05/08 09:42:47;;;;;;;10.60;3.28;;;13.60;99.90;;;;;;5014880;28;20057;-73
2022/05/08 09:45:13;;;;;;;10.40;3.20;;;13.70;99.90;;;;;;5015626;28;20046;-70
2022/05/08 09:47:42;;;;;;;11.35;3.42;;;13.80;99.90;;;;;;5015781;28;20074;-71
2022/05/08 09:50:09;;;;;;;10.32;3.17;;;13.60;99.90;;;;;;5015932;28;20096;-71
2022/05/08 09:52:40;;;;;;;14.18;4.05;;;13.60;99.90;;;;;;5015396;28;20042;-72
2022/05/08 09:55:10;;;;;;;17.92;4.20;;;13.60;99.90;;;;;;5014524;28;20468;-71
2022/05/08 09:57:36;;;;;;;10.88;3.05;;;13.60;99.90;;;;;;5015401;28;20049;-71
2022/05/08 10:00:07;;;;;;;9.15;3.28;;;13.60;99.90;;;;;;5015144;28;20081;-71
2022/05/08 10:02:35;;;;;;;10.68;3.47;;;13.70;99.90;;;;;;5005996;28;20061;-71
2022/05/08 10:05:02;;;;;;;20.70;4.10;;;13.70;99.90;;;;;;4998361;28;20049;-70
2022/05/08 10:07:28;;;;;;;14.10;3.13;;;13.40;99.90;;;;;;5014729;28;20042;-71
2022/05/08 10:15:29;;;;;;;;;;;13.60;99.90;;;;;;5015743;28;20058;-71
2022/05/08 10:18:31;;;;;;;13.45;3.10;;;13.30;99.90;;;;;;5014399;28;19921;-70
2022/05/08 10:21:03;;;;;;;13.50;3.17;;;13.30;99.90;;;;;;5015383;28;20411;-72
2022/05/08 10:23:43;;;;;;;9.80;2.83;;;13.30;99.90;;;;;;5014942;28;20050;-73
2022/05/08 10:26:18;;;;;;;14.30;3.80;;;13.50;99.90;;;;;;5015257;28;20108;-74
2022/05/08 10:29:02;;;;;;;12.68;3.30;;;13.40;99.90;;;;;;5015114;28;20427;-73
2022/05/08 10:31:44;;;;;;;12.15;3.65;;;13.40;99.90;;;;;;5014920;28;20075;-72
2022/05/08 10:34:11;;;;;;;10.63;3.17;;;13.40;99.90;;;;;;5013792;28;20041;-71
2022/05/08 10:36:38;;;;;;;13.68;3.47;;;13.30;99.90;;;;;;4997572;28;20060;-73
2022/05/08 10:39:36;;;;;;;8.68;3.00;;;13.20;99.90;;;;;;5014774;28;20046;-71
2022/05/08 10:42:01;;;;;;;11.80;3.50;;;13.40;99.90;;;;;;4995119;28;20377;-70
2022/05/08 10:44:37;;;;;;;10.82;3.38;;;13.40;99.90;;;;;;4991908;28;20054;-70
2022/05/08 10:47:30;;;;;;;12.40;3.65;;;13.50;99.90;;;;;;4995478;28;20412;-70
2022/05/08 10:49:56;;;;;;;11.25;3.40;;;13.60;99.90;;;;;;4997966;28;20054;-71
2022/05/08 10:52:22;;;;;;;17.92;3.50;;;13.60;99.90;;;;;;5014799;28;20049;-69
2022/05/08 10:54:57;;;;;;;14.27;3.83;;;13.70;99.90;;;;;;5014838;28;20053;-72
2022/05/08 10:57:30;;;;;;;7.28;2.85;;;13.80;99.90;;;;;;5015011;28;20124;-71
2022/05/08 10:59:56;;;;;;;9.43;2.83;;;13.70;99.90;;;;;;5014380;28;20046;-71
2022/05/08 11:02:51;;;;;;;10.70;3.03;;;13.90;99.90;;;;;;5014599;28;20065;-72
2022/05/08 11:05:18;;;;;;;9.20;3.30;;;13.90;99.90;;;;;;5014985;28;20099;-73
2022/05/08 11:08:08;;;;;;;13.57;2.88;;;14.20;99.90;;;;;;5017506;28;20046;-73
2022/05/08 11:10:43;;;;;;;10.93;3.50;;;14.10;99.90;;;;;;5018539;28;20088;-74
2022/05/08 11:13:14;;;;;;;10.77;3.25;;;13.80;99.90;;;;;;5018832;28;20077;-74
2022/05/08 11:15:43;;;;;;;10.80;3.03;;;14.00;99.90;;;;;;5018820;28;20351;-72
2022/05/08 11:18:15;;;;;;;14.48;2.88;;;14.00;99.90;;;;;;5018387;28;20084;-74
2022/05/08 11:20:57;;;;;;;11.23;3.20;;;14.10;99.90;;;;;;5017762;28;20122;-74
2022/05/08 11:23:29;;;;;;;9.90;3.08;;;14.30;99.90;;;;;;5018477;28;20046;-72
2022/05/08 11:26:11;;;;;;;11.25;3.20;;;14.30;99.90;;;;;;5017568;28;20073;-74
2022/05/08 11:28:46;;;;;;;10.75;2.75;;;14.40;99.90;;;;;;5018239;28;20084;-74
2022/05/08 11:31:19;;;;;;;11.30;3.03;;;14.60;99.90;;;;;;5018148;28;20045;-73
2022/05/08 11:36:35;;;;;;;11.15;3.40;;;14.90;99.90;;;;;;5018120;28;20061;-72
2022/05/08 11:39:16;;;;;;;9.05;3.70;;;14.90;99.90;;;;;;5018386;28;20050;-75
2022/05/08 11:41:47;;;;;;;10.50;3.47;;;15.00;99.90;;;;;;5017235;28;20106;-73
2022/05/08 11:44:16;;;;;;;10.18;3.70;;;14.90;99.90;;;;;;5017940;28;20420;-74
2022/05/08 11:46:48;;;;;;;12.25;3.53;;;14.90;99.90;;;;;;5017512;28;20038;-73
2022/05/08 11:49:27;;;;;;;14.20;4.30;;;14.90;99.90;;;;;;5029124;28;20521;-73
2022/05/08 11:51:54;;;;;;;12.07;3.92;;;15.00;99.90;;;;;;5037665;28;20058;-72
2022/05/08 11:54:40;;;;;;;11.52;3.42;;;15.20;99.90;;;;;;5037653;28;20368;-74
2022/05/08 11:57:19;;;;;;;10.65;3.53;;;15.50;99.90;;;;;;5037572;28;20421;-72
2022/05/08 12:00:06;;;;;;;9.95;3.58;;;15.60;99.90;;;;;;5037052;28;20061;-73
2022/05/08 12:02:39;;;;;;;9.63;3.20;;;15.90;99.90;;;;;;5037576;28;20124;-75
2022/05/08 12:05:05;;;;;;;12.40;3.55;;;16.00;99.90;;;;;;5037380;28;20124;-73
2022/05/08 12:07:41;;;;;;;11.98;3.97;;;16.30;99.90;;;;;;5037265;28;20037;-74
2022/05/08 12:10:09;;;;;;;8.95;3.05;;;16.30;99.90;;;;;;5037250;28;20033;-74
2022/05/08 12:12:37;;;;;;;9.15;3.40;;;16.30;99.90;;;;;;5037496;28;20038;-73
2022/05/08 12:15:06;;;;;;;12.52;3.65;;;16.50;99.90;;;;;;5036485;28;20463;-75
2022/05/08 12:17:58;;;;;;;10.18;3.40;;;16.80;99.90;;;;;;5036400;28;20483;-75
2022/05/08 12:20:32;;;;;;;12.30;3.88;;;16.90;99.90;;;;;;5036880;28;20053;-74
2022/05/08 12:22:57;;;;;;;;;;;17.00;99.90;;;;;;5037219;28;20467;-74
2022/05/08 12:25:23;;;;;;;10.27;3.35;;;17.00;99.90;;;;;;5036769;28;19932;-75
2022/05/08 12:27:49;;;;;;;10.55;3.47;;;17.00;99.90;;;;;;5037204;28;20033;-73
2022/05/08 12:30:15;;;;;;;10.32;3.53;;;17.40;99.90;;;;;;5036912;28;20045;-75
2022/05/08 12:32:41;;;;;;;7.72;3.30;;;18.00;99.90;;;;;;5032872;28;20142;-72
2022/05/08 12:35:11;;;;;;;11.43;3.97;;;18.40;99.90;;;;;;5036684;28;20041;-71
2022/05/08 12:37:38;;;;;;;11.75;4.25;;;18.70;99.30;;;;;;5036923;28;20046;-71
2022/05/08 12:40:06;;;;;;;12.07;3.88;;;19.00;99.30;;;;;;5036294;28;20042;-73
2022/05/08 12:42:31;;;;;;;13.73;4.22;;;19.20;97.80;;;;;;5036958;28;20162;-73
2022/05/08 12:44:57;;;;;;;10.25;3.55;;;19.80;98.40;;;;;;5036595;28;20474;-72
2022/05/08 12:47:23;;;;;;;8.30;3.47;;;20.30;97.10;;;;;;5019525;28;20127;-72
2022/05/08 12:49:49;;;;;;;10.25;3.53;;;20.40;95.10;;;;;;5025176;28;20207;-71
2022/05/08 12:52:15;;;;;;;13.40;4.07;;;20.90;94.40;;;;;;5017066;28;20050;-72
2022/05/08 12:54:41;;;;;;;10.82;3.20;;;21.00;92.70;;;;;;5016488;28;20049;-70
2022/05/08 12:57:08;;;;;;;8.93;3.45;;;21.30;92.20;;;;;;5016357;28;20356;-70
2022/05/08 12:59:47;;;;;;;9.73;3.88;;;21.30;89.10;;;;;;5016261;28;20100;-72
2022/05/08 13:02:18;;;;;;;13.57;4.57;;;21.50;89.70;;;;;;5016645;28;20072;-71
2022/05/08 13:04:45;;;;;;;8.40;3.08;;;21.70;83.20;;;;;;5016496;28;20140;-71
2022/05/08 13:07:11;;;;;;;10.23;3.55;;;21.90;83.90;;;;;;5015687;28;20045;-73
2022/05/08 13:09:37;;;;;;;10.82;3.25;;;21.80;84.60;;;;;;5016293;28;20415;-72
2022/05/08 13:12:05;;;;;;;7.70;2.88;;;22.10;84.10;;;;;;5016471;28;20050;-73
2022/05/08 13:14:32;;;;;;;13.85;3.72;;;22.60;83.90;;;;;;5016369;28;20046;-72
2022/05/08 13:16:57;;;;;;;17.20;3.88;;;22.90;83.40;;;;;;4999265;28;20045;-73
2022/05/08 13:19:23;;;;;;;12.43;3.85;;;23.20;81.20;;;;;;5016179;28;20053;-73